createdAt,value
2019-03-05T00:00:39.920Z,8.20
2019-03-05T00:03:09.390Z,10.63
2019-03-05T00:05:39.031Z,6.93
2019-03-05T00:08:08.570Z,10.77
2019-03-05T00:10:42.158Z,6.83
2019-03-05T00:13:11.888Z,10.93
2019-03-05T00:15:42.190Z,16.30
2019-03-05T00:18:12.022Z,6.77
2019-03-05T00:20:41.721Z,9.63
2019-03-05T00:23:11.261Z,10.03
2019-03-05T00:25:41.576Z,7.30
2019-03-05T00:28:43.023Z,11.00
2019-03-05T00:31:29.166Z,7.67
2019-03-05T00:34:34.950Z,4.23
2019-03-05T00:37:25.240Z,7.37
2019-03-05T00:40:21.693Z,10.60
2019-03-05T00:43:13.180Z,8.80
2019-03-05T00:45:50.168Z,8.47
2019-03-05T00:49:02.504Z,9.70
2019-03-05T00:52:40.187Z,6.47
2019-03-05T00:55:56.482Z,6.43
2019-03-05T00:58:59.163Z,5.23
2019-03-05T01:02:04.473Z,5.07
2019-03-05T01:05:14.753Z,8.50
2019-03-05T01:07:44.377Z,7.47
2019-03-05T01:10:14.264Z,7.07
2019-03-05T01:12:44.084Z,9.87
2019-03-05T01:15:13.880Z,7.13
2019-03-05T01:17:43.524Z,4.73
2019-03-05T01:20:13.225Z,8.53
2019-03-05T01:22:42.917Z,8.20
2019-03-05T01:25:27.024Z,8.27
2019-03-05T01:27:56.671Z,6.63
2019-03-05T01:30:53.016Z,7.83
2019-03-05T01:33:22.906Z,4.30
2019-03-05T01:36:02.459Z,8.87
2019-03-05T01:38:36.688Z,8.47
2019-03-05T01:41:08.261Z,9.33
2019-03-05T01:43:37.743Z,9.57
2019-03-05T01:46:07.542Z,7.20
2019-03-05T01:48:37.144Z,5.00
2019-03-05T01:51:06.612Z,6.70
2019-03-05T01:53:36.581Z,7.47
2019-03-05T01:56:07.517Z,7.07
2019-03-05T01:58:37.257Z,4.50
2019-03-05T02:01:06.968Z,4.77
2019-03-05T02:03:36.534Z,3.97
2019-03-05T02:06:06.042Z,6.90
2019-03-05T02:08:35.581Z,4.27
2019-03-05T02:11:05.659Z,5.33
2019-03-05T02:13:35.378Z,7.17
2019-03-05T02:16:05.019Z,9.30
2019-03-05T02:18:34.838Z,2.70
2019-03-05T02:21:04.376Z,1.70
2019-03-05T02:24:06.718Z,2.97
2019-03-05T02:27:12.287Z,2.93
2019-03-05T02:29:50.568Z,2.93
2019-03-05T02:32:52.970Z,2.40
2019-03-05T02:35:46.556Z,3.37
2019-03-05T02:39:00.667Z,2.33
2019-03-05T02:42:01.170Z,3.30
2019-03-05T02:45:08.592Z,2.40
2019-03-05T02:48:09.827Z,4.47
2019-03-05T02:51:07.836Z,5.50
2019-03-05T02:54:18.545Z,2.60
2019-03-05T02:57:12.020Z,3.60
2019-03-05T02:59:43.232Z,4.13
2019-03-05T03:02:37.492Z,4.97
2019-03-05T03:05:27.114Z,6.53
2019-03-05T03:07:56.708Z,6.40
2019-03-05T03:10:26.804Z,2.83
2019-03-05T03:12:56.614Z,3.37
2019-03-05T03:15:26.416Z,3.13
2019-03-05T03:17:55.891Z,6.17
2019-03-05T03:20:25.483Z,3.40
2019-03-05T03:22:55.004Z,2.63
2019-03-05T03:25:25.191Z,5.50
2019-03-05T03:27:54.745Z,2.43
2019-03-05T03:30:28.433Z,3.07
2019-03-05T03:32:58.325Z,2.97
2019-03-05T03:35:28.241Z,3.53
2019-03-05T03:37:58.020Z,3.93
2019-03-05T03:40:27.545Z,3.37
2019-03-05T03:42:57.220Z,3.60
2019-03-05T03:45:27.567Z,3.80
2019-03-05T03:47:57.072Z,3.90
2019-03-05T03:50:26.654Z,4.10
2019-03-05T03:52:56.230Z,4.10
2019-03-05T03:55:25.684Z,5.77
2019-03-05T03:57:55.254Z,4.53
2019-03-05T04:00:25.529Z,5.40
2019-03-05T04:02:56.810Z,5.40
2019-03-05T04:05:26.467Z,3.87
2019-03-05T04:07:56.073Z,4.47
2019-03-05T04:10:26.233Z,3.53
2019-03-05T04:12:55.804Z,3.37
2019-03-05T04:15:25.623Z,2.97
2019-03-05T04:17:55.363Z,2.70
2019-03-05T04:20:34.193Z,2.67
2019-03-05T04:23:03.682Z,2.40
2019-03-05T04:25:33.134Z,2.77
2019-03-05T04:28:02.669Z,3.47
2019-03-05T04:30:32.515Z,2.13
2019-03-05T04:33:02.390Z,2.13
2019-03-05T04:35:32.010Z,2.70
2019-03-05T04:38:01.530Z,1.60
2019-03-05T04:40:31.142Z,1.70
2019-03-05T04:43:00.741Z,1.80
2019-03-05T04:45:55.146Z,1.40
2019-03-05T04:48:25.016Z,1.80
2019-03-05T04:51:00.494Z,1.73
2019-03-05T04:53:30.030Z,1.60
2019-03-05T04:55:59.576Z,1.47
2019-03-05T04:58:29.153Z,2.20
2019-03-05T05:00:58.580Z,1.43
2019-03-05T05:03:28.091Z,1.80
2019-03-05T05:05:57.624Z,2.13
2019-03-05T05:08:27.087Z,1.30
2019-03-05T05:10:57.158Z,1.50
2019-03-05T05:13:26.758Z,1.30
2019-03-05T05:15:56.302Z,1.70
2019-03-05T05:18:25.909Z,1.73
2019-03-05T05:20:55.566Z,1.63
2019-03-05T05:23:25.228Z,1.60
2019-03-05T05:25:54.747Z,1.10
2019-03-05T05:28:24.424Z,1.13
2019-03-05T05:30:54.003Z,1.27
2019-03-05T05:33:23.526Z,1.00
2019-03-05T05:35:53.011Z,1.70
2019-03-05T05:38:22.636Z,1.63
2019-03-05T05:40:52.182Z,1.43
2019-03-05T05:43:25.066Z,1.20
2019-03-05T05:45:54.746Z,1.60
2019-03-05T05:48:24.255Z,1.50
2019-03-05T05:50:54.029Z,1.80
2019-03-05T05:53:23.618Z,1.70
2019-03-05T05:55:53.109Z,2.17
2019-03-05T05:58:22.680Z,1.70
2019-03-05T06:00:54.506Z,1.83
2019-03-05T06:03:25.784Z,1.60
2019-03-05T06:05:55.498Z,1.63
2019-03-05T06:08:25.004Z,1.67
2019-03-05T06:10:54.459Z,3.40
2019-03-05T06:13:23.995Z,2.57
2019-03-05T06:15:53.556Z,1.37
2019-03-05T06:18:23.170Z,2.53
2019-03-05T06:20:52.872Z,1.67
2019-03-05T06:23:22.514Z,3.07
2019-03-05T06:25:52.079Z,4.30
2019-03-05T06:28:21.725Z,1.70
2019-03-05T06:30:51.344Z,1.90
2019-03-05T06:33:20.751Z,2.60
2019-03-05T06:35:50.374Z,1.70
2019-03-05T06:38:19.886Z,3.60
2019-03-05T06:40:49.412Z,2.20
2019-03-05T06:43:19.256Z,2.20
2019-03-05T06:45:48.942Z,2.57
2019-03-05T06:48:18.577Z,2.23
2019-03-05T06:50:48.161Z,4.13
2019-03-05T06:53:17.733Z,3.03
2019-03-05T06:55:47.541Z,5.50
2019-03-05T06:58:17.049Z,5.20
2019-03-05T07:00:46.654Z,2.93
2019-03-05T07:03:16.268Z,3.40
2019-03-05T07:06:21.058Z,5.77
2019-03-05T07:08:58.867Z,3.10
2019-03-05T07:12:12.746Z,4.67
2019-03-05T07:15:26.073Z,6.33
2019-03-05T07:18:00.812Z,3.80
2019-03-05T07:21:06.933Z,3.70
2019-03-05T07:24:21.513Z,8.93
2019-03-05T07:26:51.230Z,7.07
2019-03-05T07:29:20.925Z,3.93
2019-03-05T07:31:50.720Z,6.10
2019-03-05T07:34:24.516Z,5.03
2019-03-05T07:36:54.365Z,5.23
2019-03-05T07:39:24.513Z,7.43
2019-03-05T07:41:54.271Z,8.33
2019-03-05T07:44:24.231Z,7.23
2019-03-05T07:46:53.737Z,5.80
2019-03-05T07:49:23.288Z,6.40
2019-03-05T07:51:52.833Z,5.37
2019-03-05T07:54:22.500Z,5.27
2019-03-05T07:56:52.130Z,8.73
2019-03-05T07:59:21.705Z,9.67
2019-03-05T08:01:51.407Z,4.73
2019-03-05T08:04:21.233Z,5.73
2019-03-05T08:06:50.994Z,7.37
2019-03-05T08:09:37.688Z,4.80
2019-03-05T08:12:29.860Z,6.93
2019-03-05T08:15:33.598Z,5.97
2019-03-05T08:18:03.239Z,8.43
2019-03-05T08:20:32.950Z,4.93
2019-03-05T08:23:03.905Z,3.93
2019-03-05T08:25:33.353Z,3.17
2019-03-05T08:28:05.012Z,5.17
2019-03-05T08:30:34.792Z,5.37
2019-03-05T08:33:04.402Z,6.00
2019-03-05T08:35:33.968Z,3.87
2019-03-05T08:38:03.676Z,4.80
2019-03-05T08:40:33.361Z,3.53
2019-03-05T08:43:04.789Z,4.43
2019-03-05T08:45:34.426Z,3.27
2019-03-05T08:48:04.044Z,5.73
2019-03-05T08:50:33.773Z,4.30
2019-03-05T08:53:03.489Z,3.27
2019-03-05T08:55:33.510Z,5.27
2019-03-05T08:58:03.105Z,4.27
2019-03-05T09:00:32.886Z,3.77
2019-03-05T09:03:02.421Z,2.37
2019-03-05T09:05:32.030Z,3.97
2019-03-05T09:08:02.250Z,3.67
2019-03-05T09:10:31.789Z,8.70
2019-03-05T09:13:01.601Z,3.43
2019-03-05T09:15:31.339Z,5.80
2019-03-05T09:18:01.198Z,6.27
2019-03-05T09:20:30.703Z,8.47
2019-03-05T09:23:00.441Z,6.27
2019-03-05T09:25:30.054Z,4.37
2019-03-05T09:27:59.822Z,4.40
2019-03-05T09:30:29.659Z,6.63
2019-03-05T09:32:59.517Z,6.50
2019-03-05T09:35:29.115Z,6.47
2019-03-05T09:37:58.731Z,7.03
2019-03-05T09:40:28.233Z,14.43
2019-03-05T09:42:57.798Z,10.30
2019-03-05T09:45:28.369Z,5.33
2019-03-05T09:47:58.105Z,9.27
2019-03-05T09:50:27.703Z,7.47
2019-03-05T09:52:57.467Z,11.17
2019-03-05T09:55:27.349Z,7.53
2019-03-05T09:58:07.721Z,9.03
2019-03-05T10:00:28.215Z,7.13
2019-03-05T10:02:57.899Z,6.03
2019-03-05T10:05:27.582Z,3.97
2019-03-05T10:07:57.274Z,6.43
2019-03-05T10:10:26.914Z,8.13
2019-03-05T10:12:58.872Z,6.47
2019-03-05T10:15:28.448Z,5.07
2019-03-05T10:17:58.138Z,7.43
2019-03-05T10:20:28.125Z,6.83
2019-03-05T10:22:58.078Z,7.10
2019-03-05T10:25:27.976Z,9.33
2019-03-05T10:27:57.852Z,7.70
2019-03-05T10:30:28.642Z,7.97
2019-03-05T10:32:59.882Z,6.90
2019-03-05T10:35:29.987Z,6.50
2019-03-05T10:38:00.905Z,5.47
2019-03-05T10:40:33.366Z,8.53
2019-03-05T10:43:08.319Z,8.63
2019-03-05T10:45:36.302Z,7.80
2019-03-05T10:48:06.270Z,5.30
2019-03-05T10:50:38.876Z,8.07
2019-03-05T10:53:10.835Z,7.73
2019-03-05T10:55:40.829Z,4.80
2019-03-05T10:58:10.969Z,8.23
2019-03-05T11:00:42.965Z,6.10
2019-03-05T11:03:15.159Z,6.83
2019-03-05T11:05:45.120Z,6.13
2019-03-05T11:08:18.685Z,8.53
2019-03-05T11:10:48.929Z,8.67
2019-03-05T11:13:18.992Z,7.70
2019-03-05T11:15:50.801Z,4.70
2019-03-05T11:18:28.991Z,7.87
2019-03-05T11:20:51.778Z,8.63
2019-03-05T11:23:23.463Z,8.27
2019-03-05T11:25:53.178Z,6.37
2019-03-05T11:28:22.844Z,8.07
2019-03-05T11:30:52.524Z,6.87
2019-03-05T11:33:22.430Z,7.33
2019-03-05T11:35:52.112Z,7.77
2019-03-05T11:38:22.244Z,7.30
2019-03-05T11:40:51.903Z,4.93
2019-03-05T11:43:21.421Z,8.00
2019-03-05T11:45:51.290Z,6.67
2019-03-05T11:48:20.886Z,5.53
2019-03-05T11:50:51.623Z,9.23
2019-03-05T11:53:21.676Z,10.30
2019-03-05T11:55:51.555Z,5.07
2019-03-05T11:58:21.254Z,4.30
2019-03-05T12:01:24.694Z,7.93
2019-03-05T12:03:54.433Z,5.33
2019-03-05T12:06:24.829Z,4.90
2019-03-05T12:08:54.487Z,6.20
2019-03-05T12:11:23.968Z,4.23
2019-03-05T12:13:53.508Z,4.37
2019-03-05T12:16:23.491Z,6.10
2019-03-05T12:18:53.295Z,4.37
2019-03-05T12:21:23.742Z,4.90
2019-03-05T12:23:55.994Z,3.40
2019-03-05T12:26:25.722Z,5.27
2019-03-05T12:28:55.328Z,7.27
2019-03-05T12:31:25.428Z,5.87
2019-03-05T12:33:55.023Z,4.50
2019-03-05T12:36:25.461Z,5.77
2019-03-05T12:38:56.645Z,7.53
2019-03-05T12:41:26.690Z,5.53
2019-03-05T12:43:58.900Z,4.53
2019-03-05T12:46:28.514Z,6.03
2019-03-05T12:48:58.097Z,7.63
2019-03-05T12:51:27.867Z,8.47
2019-03-05T12:53:57.382Z,8.60
2019-03-05T12:56:27.224Z,5.13
2019-03-05T12:58:56.906Z,5.97
2019-03-05T13:01:26.458Z,5.03
2019-03-05T13:03:56.183Z,4.40
2019-03-05T13:06:25.649Z,7.70
2019-03-05T13:08:55.297Z,7.67
2019-03-05T13:11:24.885Z,9.03
2019-03-05T13:14:05.918Z,4.87
2019-03-05T13:16:26.017Z,7.37
2019-03-05T13:18:58.186Z,7.63
2019-03-05T13:21:27.249Z,4.43
2019-03-05T13:23:58.089Z,4.30
2019-03-05T13:26:27.557Z,6.50
2019-03-05T13:28:57.246Z,5.17
2019-03-05T13:31:26.835Z,5.67
2019-03-05T13:33:56.492Z,5.43
2019-03-05T13:36:26.043Z,4.70
2019-03-05T13:38:55.526Z,8.07
2019-03-05T13:41:25.176Z,3.50
2019-03-05T13:43:55.601Z,4.70
2019-03-05T13:46:29.673Z,5.37
2019-03-05T13:49:19.070Z,5.33
2019-03-05T13:52:32.254Z,4.60
2019-03-05T13:55:40.361Z,5.57
2019-03-05T13:59:00.152Z,3.07
2019-03-05T14:01:29.895Z,5.40
2019-03-05T14:04:06.606Z,4.80
2019-03-05T14:07:11.228Z,6.50
2019-03-05T14:09:39.522Z,7.93
2019-03-05T14:12:11.368Z,5.17
2019-03-05T14:14:41.913Z,6.27
2019-03-05T14:17:26.740Z,8.27
2019-03-05T14:19:56.714Z,6.87
2019-03-05T14:22:27.567Z,13.37
2019-03-05T14:25:02.092Z,9.30
2019-03-05T14:27:29.351Z,7.60
2019-03-05T14:29:58.908Z,5.73
2019-03-05T14:32:28.549Z,6.80
2019-03-05T14:35:05.845Z,8.93
2019-03-05T14:37:35.489Z,10.27
2019-03-05T14:40:23.022Z,5.97
2019-03-05T14:42:37.807Z,6.03
2019-03-05T14:45:09.461Z,6.93
2019-03-05T14:47:39.544Z,4.07
2019-03-05T14:50:09.307Z,6.80
2019-03-05T14:52:38.869Z,6.47
2019-03-05T14:55:09.607Z,7.50
2019-03-05T14:57:39.169Z,8.50
2019-03-05T15:00:10.888Z,7.90
2019-03-05T15:02:40.718Z,4.27
2019-03-05T15:05:11.021Z,4.03
2019-03-05T15:07:40.667Z,6.40
2019-03-05T15:10:10.454Z,7.47
2019-03-05T15:12:40.283Z,7.00
2019-03-05T15:15:18.519Z,6.47
2019-03-05T15:17:48.289Z,6.23
2019-03-05T15:20:17.769Z,7.43
2019-03-05T15:22:47.406Z,3.73
2019-03-05T15:25:17.436Z,3.40
2019-03-05T15:27:47.178Z,6.93
2019-03-05T15:30:18.402Z,9.03
2019-03-05T15:32:48.305Z,4.67
2019-03-05T15:35:18.213Z,8.73
2019-03-05T15:37:47.920Z,8.80
2019-03-05T15:40:17.742Z,5.73
2019-03-05T15:42:47.543Z,5.63
2019-03-05T15:45:17.766Z,11.17
2019-03-05T15:47:47.704Z,5.27
2019-03-05T15:50:21.061Z,5.00
2019-03-05T15:52:50.737Z,8.07
2019-03-05T15:55:20.241Z,6.50
2019-03-05T15:57:49.868Z,8.67
2019-03-05T16:00:21.786Z,8.30
2019-03-05T16:02:51.507Z,6.10
2019-03-05T16:05:21.084Z,6.07
2019-03-05T16:07:50.856Z,7.57
2019-03-05T16:10:22.171Z,4.97
2019-03-05T16:12:52.182Z,6.53
2019-03-05T16:15:21.964Z,8.57
2019-03-05T16:17:51.645Z,5.67
2019-03-05T16:20:25.845Z,10.17
2019-03-05T16:22:55.172Z,10.43
2019-03-05T16:25:24.328Z,9.33
2019-03-05T16:27:53.878Z,6.43
2019-03-05T16:30:40.773Z,8.17
2019-03-05T16:33:36.246Z,10.73
2019-03-05T16:36:39.837Z,8.07
2019-03-05T16:39:46.709Z,8.03
2019-03-05T16:42:33.809Z,8.67
2019-03-05T16:45:29.852Z,24.67
2019-03-05T16:48:10.374Z,17.47
2019-03-05T16:51:04.929Z,9.40
2019-03-05T16:53:59.701Z,6.67
2019-03-05T16:57:00.166Z,11.47
2019-03-05T16:59:54.673Z,38.37
2019-03-05T17:02:42.710Z,28.37
2019-03-05T17:05:44.621Z,10.80
2019-03-05T17:08:36.177Z,7.43
2019-03-05T17:11:23.428Z,8.37
2019-03-05T17:13:53.042Z,9.57
2019-03-05T17:16:22.953Z,8.70
2019-03-05T17:18:52.774Z,6.10
2019-03-05T17:21:27.468Z,6.03
2019-03-05T17:23:53.630Z,9.33
2019-03-05T17:26:23.040Z,8.00
2019-03-05T17:28:52.651Z,8.23
2019-03-05T17:31:22.395Z,6.33
2019-03-05T17:33:51.724Z,5.60
2019-03-05T17:36:21.380Z,8.93
2019-03-05T17:38:50.848Z,5.47
2019-03-05T17:41:20.657Z,4.57
2019-03-05T17:43:50.710Z,5.57
2019-03-05T17:46:20.423Z,9.93
2019-03-05T17:48:50.361Z,6.23
2019-03-05T17:51:20.013Z,8.43
2019-03-05T17:53:49.892Z,4.13
2019-03-05T17:56:19.385Z,10.70
2019-03-05T17:58:49.315Z,6.40
2019-03-05T18:01:18.800Z,6.47
2019-03-05T18:03:48.332Z,6.33
2019-03-05T18:06:18.170Z,8.07
2019-03-05T18:08:47.623Z,8.23
2019-03-05T18:11:17.500Z,7.40
2019-03-05T18:13:47.349Z,7.30
2019-03-05T18:16:16.929Z,6.27
2019-03-05T18:18:46.471Z,4.93
2019-03-05T18:21:16.156Z,7.17
2019-03-05T18:23:45.682Z,6.40
2019-03-05T18:26:15.432Z,5.13
2019-03-05T18:28:45.111Z,7.67
2019-03-05T18:31:14.826Z,7.23
2019-03-05T18:33:44.534Z,7.80
2019-03-05T18:36:14.286Z,11.23
2019-03-05T18:38:43.717Z,6.97
2019-03-05T18:41:13.485Z,6.30
2019-03-05T18:43:43.043Z,6.63
2019-03-05T18:46:13.466Z,9.53
2019-03-05T18:48:43.477Z,8.57
2019-03-05T18:51:12.984Z,8.77
2019-03-05T18:53:42.497Z,10.77
2019-03-05T18:56:12.080Z,12.50
2019-03-05T18:58:41.523Z,9.90
2019-03-05T19:01:11.182Z,10.53
2019-03-05T19:03:40.934Z,11.70
2019-03-05T19:06:10.617Z,12.30
2019-03-05T19:08:40.339Z,13.77
2019-03-05T19:11:10.200Z,12.67
2019-03-05T19:13:39.827Z,10.80
2019-03-05T19:16:09.558Z,14.27
2019-03-05T19:18:39.259Z,12.07
2019-03-05T19:21:08.930Z,13.17
2019-03-05T19:23:38.641Z,10.97
2019-03-05T19:26:10.242Z,12.57
2019-03-05T19:28:40.309Z,8.87
2019-03-05T19:31:09.938Z,8.90
2019-03-05T19:33:39.499Z,8.10
2019-03-05T19:36:08.942Z,8.63
2019-03-05T19:38:38.812Z,7.60
2019-03-05T19:41:08.426Z,9.37
2019-03-05T19:43:38.021Z,7.43
2019-03-05T19:46:07.960Z,7.10
2019-03-05T19:48:37.738Z,11.77
2019-03-05T19:51:07.950Z,7.50
2019-03-05T19:53:37.784Z,5.93
2019-03-05T19:56:07.192Z,6.30
2019-03-05T19:58:36.931Z,7.97
2019-03-05T20:01:11.004Z,7.50
2019-03-05T20:03:40.620Z,8.50
2019-03-05T20:06:10.579Z,8.73
2019-03-05T20:08:40.573Z,8.40
2019-03-05T20:11:10.811Z,8.70
2019-03-05T20:13:40.788Z,10.40
2019-03-05T20:16:11.307Z,8.97
2019-03-05T20:18:41.220Z,8.13
2019-03-05T20:21:11.112Z,8.03
2019-03-05T20:23:40.620Z,7.33
2019-03-05T20:26:10.341Z,6.50
2019-03-05T20:28:40.099Z,7.17
2019-03-05T20:31:10.011Z,5.77
2019-03-05T20:33:39.544Z,9.57
2019-03-05T20:36:09.109Z,8.97
2019-03-05T20:38:38.820Z,7.67
2019-03-05T20:41:08.334Z,7.70
2019-03-05T20:43:37.732Z,9.37
2019-03-05T20:46:22.613Z,8.33
2019-03-05T20:48:52.538Z,9.43
2019-03-05T20:51:22.082Z,8.67
2019-03-05T20:53:51.571Z,10.70
2019-03-05T20:56:21.154Z,9.17
2019-03-05T20:58:50.601Z,8.83
2019-03-05T21:01:20.116Z,9.63
2019-03-05T21:03:49.585Z,13.00
2019-03-05T21:06:19.247Z,10.50
2019-03-05T21:08:48.651Z,10.47
2019-03-05T21:11:22.098Z,12.37
2019-03-05T21:13:52.100Z,10.80
2019-03-05T21:16:21.718Z,11.17
2019-03-05T21:18:51.518Z,9.23
2019-03-05T21:21:21.002Z,12.90
2019-03-05T21:23:50.603Z,10.63
2019-03-05T21:26:20.091Z,13.63
2019-03-05T21:28:49.783Z,11.57
2019-03-05T21:31:19.410Z,10.87
2019-03-05T21:33:48.910Z,11.20
2019-03-05T21:36:18.520Z,16.77
2019-03-05T21:38:48.291Z,15.00
2019-03-05T21:41:18.031Z,15.60
2019-03-05T21:43:47.902Z,19.07
2019-03-05T21:46:18.478Z,14.53
2019-03-05T21:48:48.223Z,14.33
2019-03-05T21:51:17.824Z,14.27
2019-03-05T21:53:47.365Z,16.13
2019-03-05T21:56:17.090Z,15.47
2019-03-05T21:58:46.857Z,13.67
2019-03-05T22:01:16.594Z,15.27
2019-03-05T22:03:46.231Z,16.20
2019-03-05T22:06:15.770Z,19.27
2019-03-05T22:08:45.284Z,15.37
2019-03-05T22:11:15.031Z,22.67
2019-03-05T22:13:44.670Z,14.93
2019-03-05T22:16:14.706Z,15.43
2019-03-05T22:18:44.254Z,19.20
2019-03-05T22:21:13.967Z,15.87
2019-03-05T22:23:43.649Z,15.10
2019-03-05T22:26:13.202Z,17.53
2019-03-05T22:28:42.857Z,16.17
2019-03-05T22:31:15.281Z,15.27
2019-03-05T22:33:44.879Z,13.97
2019-03-05T22:36:14.666Z,14.43
2019-03-05T22:38:44.479Z,17.47
2019-03-05T22:41:14.457Z,14.60
2019-03-05T22:43:44.038Z,13.50
2019-03-05T22:46:13.924Z,14.37
2019-03-05T22:48:43.729Z,13.43
2019-03-05T22:51:13.666Z,15.07
2019-03-05T22:53:43.183Z,14.33
2019-03-05T22:56:13.099Z,14.83
2019-03-05T22:58:42.651Z,17.83
2019-03-05T23:01:20.547Z,13.67
2019-03-05T23:03:55.340Z,13.50
2019-03-05T23:06:25.118Z,13.40
2019-03-05T23:08:54.773Z,14.50
2019-03-05T23:11:24.612Z,16.90
2019-03-05T23:13:54.559Z,16.20
2019-03-05T23:16:25.432Z,16.70
2019-03-05T23:18:56.063Z,14.90
2019-03-05T23:21:25.671Z,16.37
2019-03-05T23:23:55.490Z,20.73
2019-03-05T23:26:25.227Z,16.43
2019-03-05T23:28:54.852Z,17.57
2019-03-05T23:31:24.477Z,15.63
2019-03-05T23:33:54.036Z,18.00
2019-03-05T23:36:23.550Z,17.67
2019-03-05T23:38:53.152Z,17.60
2019-03-05T23:41:22.940Z,19.77
2019-03-05T23:43:52.734Z,17.93
2019-03-05T23:46:22.545Z,19.37
2019-03-05T23:48:52.141Z,18.03
2019-03-05T23:51:21.800Z,18.07
2019-03-05T23:53:51.624Z,18.77
2019-03-05T23:56:21.221Z,17.57
2019-03-05T23:58:51.034Z,17.13
